Big Bear Station Historical Data
Daily Summary for January 28, 2017 Units:  English    Metric   Both
« Previous Day
Next Day »
Daily Weekly Monthly Yearly Custom
  High: Low: Average:
Temperature: 47.7 °F 17.6 °F 28.8 °F
Dew Point: 19.1 °F 7.1 °F 11.6 °F
Humidity: 67 % 21 % 51 %
Wind Speed: 3.2 mph 0.0 mph 1.4 mph
Wind Gust: -999.0 mph - -
Wind:- - South
Pressure: 30.50 in 30.43 in -
Precipitation: 0.23 in    
Historical Graphs
 
 
Tabular Data for January 28, 2017
Time Temperature Dew Point Pressure Wind Wind Speed Wind Gust Humidity Rainfall Rate (Hourly)
00:10 19.8 °F 9.6 °F 30.45 in Calm   -999.0 mph 64 % 0 in
00:26 19.2 °F 8.7 °F 30.45 in Calm   -999.0 mph 63 % 0 in
00:56 18.3 °F 8.8 °F 30.45 in Calm   -999.0 mph 66 % 0 in
01:11 17.8 °F 8.7 °F 30.45 in Calm   -999.0 mph 67 % 0 in
01:27 17.6 °F 8.5 °F 30.45 in Calm   -999.0 mph 67 % 0 in
01:42 17.8 °F 8.4 °F 30.45 in NNW 1.1 mph -999.0 mph 66 % 0 in
01:57 18.5 °F 8.0 °F 30.45 in Calm   -999.0 mph 63 % 0 in
02:12 19.8 °F 7.8 °F 30.45 in ENE 1.1 mph -999.0 mph 59 % 0 in
02:27 19.9 °F 8.2 °F 30.45 in Calm   -999.0 mph 60 % 0 in
02:43 19.8 °F 8.5 °F 30.45 in WNW 1.7 mph -999.0 mph 61 % 0 in
02:58 20.5 °F 8.4 °F 30.45 in WSW 1.7 mph -999.0 mph 59 % 0 in
03:13 21.7 °F 8.0 °F 30.44 in South 1.1 mph -999.0 mph 55 % 0 in
03:29 22.8 °F 8.6 °F 30.44 in SW 1.7 mph -999.0 mph 54 % 0 in
03:44 22.5 °F 9.6 °F 30.43 in SW 1.7 mph -999.0 mph 57 % 0 in
04:14 23.7 °F 9.5 °F 30.44 in Calm   -999.0 mph 54 % 0 in
04:29 23.5 °F 10.5 °F 30.43 in NW 2.2 mph -999.0 mph 57 % 0 in
04:45 22.6 °F 10.4 °F 30.44 in NE 1.1 mph -999.0 mph 59 % 0 in
05:00 21.9 °F 9.8 °F 30.44 in Calm   -999.0 mph 59 % 0 in
05:15 21.7 °F 9.9 °F 30.44 in Calm   -999.0 mph 60 % 0 in
05:30 21.0 °F 9.7 °F 30.44 in Calm   -999.0 mph 61 % 0 in
05:46 20.7 °F 9.7 °F 30.44 in South 1.7 mph -999.0 mph 62 % 0 in
06:01 20.5 °F 9.2 °F 30.44 in Calm   -999.0 mph 61 % 0 in
06:16 20.7 °F 9.4 °F 30.45 in NW 1.7 mph -999.0 mph 61 % 0 in
06:31 20.8 °F 9.1 °F 30.46 in Calm   -999.0 mph 60 % 0 in
06:47 20.5 °F 10.3 °F 30.46 in Calm   -999.0 mph 64 % 0 in
07:17 20.7 °F 10.4 °F 30.46 in South 1.1 mph -999.0 mph 64 % 0 in
07:32 20.8 °F 10.5 °F 30.47 in SSE 1.7 mph -999.0 mph 64 % 0 in
07:47 22.8 °F 12.1 °F 30.47 in South 2.7 mph -999.0 mph 63 % 0 in
08:03 24.1 °F 11.4 °F 30.47 in SSE 1.7 mph -999.0 mph 58 % 0 in
08:18 25.3 °F 13.7 °F 30.48 in South 1.7 mph -999.0 mph 61 % 0 in
08:33 25.3 °F 14.1 °F 30.48 in South 2.7 mph -999.0 mph 62 % 0 in
08:48 26.2 °F 14.2 °F 30.48 in Calm   -999.0 mph 60 % 0 in
09:03 28.9 °F 12.1 °F 30.49 in WNW 2.2 mph -999.0 mph 49 % 0 in
09:19 30.9 °F 12.0 °F 30.49 in NNW 2.7 mph -999.0 mph 45 % 0 in
09:49 34.2 °F 12.9 °F 30.50 in NE 3.2 mph -999.0 mph 41 % 0 in
10:04 35.2 °F 12.1 °F 30.50 in NNE 2.7 mph -999.0 mph 38 % 0 in
10:19 36.3 °F 12.5 °F 30.50 in NE 2.2 mph -999.0 mph 37 % 0 in
10:35 37.9 °F 13.9 °F 30.50 in SW 1.7 mph -999.0 mph 37 % 0 in
10:50 38.8 °F 12.8 °F 30.49 in South 2.2 mph -999.0 mph 34 % 0 in
11:05 39.9 °F 12.4 °F 30.49 in ESE 2.7 mph -999.0 mph 32 % 0 in
11:20 41.2 °F 11.3 °F 30.48 in SSW 1.7 mph -999.0 mph 29 % 0 in
11:36 42.3 °F 12.3 °F 30.48 in East 1.1 mph -999.0 mph 29 % 0 in
11:51 42.8 °F 11.9 °F 30.47 in WNW 2.7 mph -999.0 mph 28 % 0 in
12:06 44.4 °F 12.5 °F 30.46 in West 1.1 mph -999.0 mph 27 % 0 in
12:22 44.8 °F 12.0 °F 30.45 in NW 2.7 mph -999.0 mph 26 % 0 in
12:37 45.5 °F 12.6 °F 30.45 in NW 2.7 mph -999.0 mph 26 % 0 in
12:52 45.5 °F 11.7 °F 30.45 in SSE 1.7 mph -999.0 mph 25 % 0 in
13:08 47.7 °F 12.6 °F 30.44 in SSW 1.1 mph -999.0 mph 24 % 0 in
13:23 45.7 °F 7.9 °F 30.44 in NNW 1.1 mph -999.0 mph 21 % 0 in
13:38 45.5 °F 12.6 °F 30.44 in NNE 1.1 mph -999.0 mph 26 % 0 in
13:53 44.4 °F 13.3 °F 30.44 in SW 2.2 mph -999.0 mph 28 % 0 in
14:09 43.3 °F 11.5 °F 30.43 in NNW 2.2 mph -999.0 mph 27 % 0 in
14:24 43.5 °F 10.8 °F 30.43 in Calm   -999.0 mph 26 % 0 in
14:39 43.0 °F 15.1 °F 30.43 in Calm   -999.0 mph 32 % 0 in
14:54 42.3 °F 15.2 °F 30.43 in South 3.2 mph -999.0 mph 33 % 0 in
15:09 41.2 °F 12.8 °F 30.43 in SE 2.2 mph -999.0 mph 31 % 0 in
15:25 40.6 °F 16.3 °F 30.43 in SE 2.7 mph -999.0 mph 37 % 0 in
15:40 39.6 °F 17.8 °F 30.43 in SSE 2.2 mph -999.0 mph 41 % 0 in
15:55 38.1 °F 18.1 °F 30.43 in South 2.2 mph -999.0 mph 44 % 0 in
16:10 36.9 °F 19.0 °F 30.43 in South 1.7 mph -999.0 mph 48 % 0 in
16:25 35.8 °F 18.5 °F 30.43 in South 1.7 mph -999.0 mph 49 % 0 in
16:41 34.5 °F 18.2 °F 30.43 in SSW 2.2 mph -999.0 mph 51 % 0 in
17:11 32.2 °F 19.1 °F 30.44 in SSE 1.7 mph -999.0 mph 58 % 0 in
17:26 30.6 °F 18.0 °F 30.44 in South 1.7 mph -999.0 mph 59 % 0 in
17:41 29.7 °F 16.3 °F 30.44 in South 1.7 mph -999.0 mph 57 % 0 in
17:57 28.8 °F 15.5 °F 30.45 in South 2.2 mph -999.0 mph 57 % 0 in
18:12 27.7 °F 14.0 °F 30.45 in South 1.7 mph -999.0 mph 56 % 0 in
18:27 27.0 °F 10.4 °F 30.45 in Calm   -999.0 mph 49 % 0 in
18:43 26.8 °F 11.1 °F 30.45 in South 2.2 mph -999.0 mph 51 % 0 in
18:58 26.1 °F 10.4 °F 30.45 in South 1.7 mph -999.0 mph 51 % 0 in
19:13 25.7 °F 10.9 °F 30.45 in South 2.7 mph -999.0 mph 53 % 0 in
19:43 25.0 °F 8.5 °F 30.46 in SSE 2.2 mph -999.0 mph 49 % 0 in
19:59 25.0 °F 8.5 °F 30.46 in SSE 1.7 mph -999.0 mph 49 % 0 in
20:14 24.4 °F 8.0 °F 30.46 in South 2.2 mph -999.0 mph 49 % 0 in
20:29 24.8 °F 9.2 °F 30.47 in South 2.2 mph -999.0 mph 51 % 0 in
20:45 25.2 °F 11.7 °F 30.47 in South 2.2 mph -999.0 mph 56 % 0 in
21:00 25.0 °F 13.4 °F 30.47 in SSE 2.7 mph -999.0 mph 61 % 0 in
21:15 24.1 °F 13.0 °F 30.47 in Calm   -999.0 mph 62 % 0 in
21:30 23.0 °F 11.2 °F 30.47 in Calm   -999.0 mph 60 % 0 in
21:46 22.3 °F 10.1 °F 30.47 in Calm   -999.0 mph 59 % 0 in
22:01 21.9 °F 9.8 °F 30.47 in SSE 1.7 mph -999.0 mph 59 % 0 in
22:16 21.6 °F 11.6 °F 30.47 in South 1.1 mph -999.0 mph 65 % 0 in
22:31 21.6 °F 7.1 °F 30.47 in Calm   -999.0 mph 53 % 0 in
22:47 20.8 °F 10.2 °F 30.47 in SSE 1.1 mph -999.0 mph 63 % 0 in
23:02 20.8 °F 11.6 °F 30.47 in Calm   -999.0 mph 67 % 0 in
23:17 20.3 °F 10.1 °F 30.47 in Calm   -999.0 mph 64 % 0 in
23:48 19.9 °F 10.4 °F 30.46 in Calm   -999.0 mph 66 % 0 in
Big Bear CA Weather
Compliments of Weather Underground - 1.5 mb